KECS/ECS METAR and TAF weather

Enter ICAO airport designator
Station Type Date Time Source
KECS METAR 2019/02/23 17:15 UTC NOAA

KECS 231715Z AUTO 00000KT 10SM M12/M16 A2992 RMK AO2


Station Type Date Time Source
KECS Decoded METAR 2019/02/23 17:15 UTC NOAA

Station name not available
Feb 23, 2019 - 12:15 PM EST / 2019.02.23 1715 UTC
Wind: Calm:0
Visibility: 10 mile(s):0
Temperature: 10 F (-12 C)
Dew Point: 3 F (-16 C)
Relative Humidity: 72%
Pressure (altimeter): 29.92 in. Hg (1013 hPa)
ob: KECS 231715Z AUTO 00000KT 10SM M12/M16 A2992 RMK AO2
cycle: 17

Station Type Date Time Source
KECS TAF UTC NOAA

Error!


Example: see airport list